createdAt,value
2018-02-03T00:01:30.872Z,100.00
2018-02-03T00:03:58.335Z,100.00
2018-02-03T00:06:25.793Z,100.00
2018-02-03T00:08:53.605Z,100.00
2018-02-03T00:11:21.116Z,100.00
2018-02-03T00:13:48.572Z,100.00
2018-02-03T00:16:16.556Z,100.00
2018-02-03T00:18:45.626Z,100.00
2018-02-03T00:21:13.111Z,100.00
2018-02-03T00:23:41.086Z,100.00
2018-02-03T00:26:08.548Z,100.00
2018-02-03T00:28:36.007Z,100.00
2018-02-03T00:31:03.843Z,100.00
2018-02-03T00:33:31.299Z,100.00
2018-02-03T00:35:58.778Z,100.00
2018-02-03T00:38:26.480Z,100.00
2018-02-03T00:40:53.945Z,100.00
2018-02-03T00:43:21.401Z,100.00
2018-02-03T00:45:48.993Z,100.00
2018-02-03T00:48:16.457Z,100.00
2018-02-03T00:50:43.920Z,100.00
2018-02-03T00:53:11.840Z,100.00
2018-02-03T00:55:39.577Z,100.00
2018-02-03T00:58:07.034Z,100.00
2018-02-03T01:00:34.833Z,100.00
2018-02-03T01:03:02.290Z,100.00
2018-02-03T01:05:29.755Z,100.00
2018-02-03T01:07:57.518Z,100.00
2018-02-03T01:10:24.975Z,100.00
2018-02-03T01:12:52.481Z,100.00
2018-02-03T01:15:20.197Z,100.00
2018-02-03T01:17:47.646Z,100.00
2018-02-03T01:20:16.427Z,100.00
2018-02-03T01:22:44.427Z,100.00
2018-02-03T01:25:11.878Z,100.00
2018-02-03T01:27:39.333Z,100.00
2018-02-03T01:30:07.112Z,100.00
2018-02-03T01:32:34.577Z,100.00
2018-02-03T01:35:02.042Z,100.00
2018-02-03T01:37:29.809Z,100.00
2018-02-03T01:39:57.268Z,100.00
2018-02-03T01:42:24.732Z,100.00
2018-02-03T01:44:52.487Z,100.00
2018-02-03T01:47:19.953Z,100.00
2018-02-03T01:49:47.413Z,100.00
2018-02-03T01:52:15.167Z,100.00
2018-02-03T01:54:42.629Z,100.00
2018-02-03T01:57:10.091Z,100.00
2018-02-03T01:59:38.009Z,100.00
2018-02-03T02:02:05.467Z,100.00
2018-02-03T02:04:32.925Z,100.00
2018-02-03T02:07:00.821Z,100.00
2018-02-03T02:09:28.272Z,100.00
2018-02-03T02:11:55.733Z,100.00
2018-02-03T02:14:23.540Z,100.00
2018-02-03T02:16:50.997Z,100.00
2018-02-03T02:19:18.457Z,100.00
2018-02-03T02:21:46.529Z,100.00
2018-02-03T02:24:13.987Z,100.00
2018-02-03T02:26:41.534Z,100.00
2018-02-03T02:29:09.528Z,100.00
2018-02-03T02:31:36.995Z,100.00
2018-02-03T02:34:04.461Z,100.00
2018-02-03T02:36:32.526Z,100.00
2018-02-03T02:38:59.981Z,100.00
2018-02-03T02:41:27.445Z,100.00
2018-02-03T02:43:55.212Z,100.00
2018-02-03T02:46:22.668Z,100.00
2018-02-03T02:48:50.144Z,100.00
2018-02-03T02:51:17.900Z,100.00
2018-02-03T02:53:45.364Z,100.00
2018-02-03T02:56:12.832Z,100.00
2018-02-03T02:58:40.588Z,100.00
2018-02-03T03:01:08.050Z,100.00
2018-02-03T03:03:35.505Z,100.00
2018-02-03T03:06:03.880Z,100.00
2018-02-03T03:08:31.340Z,100.00
2018-02-03T03:10:58.808Z,100.00
2018-02-03T03:13:26.592Z,100.00
2018-02-03T03:15:54.044Z,100.00
2018-02-03T03:18:21.505Z,100.00
2018-02-03T03:20:49.252Z,100.00
2018-02-03T03:23:17.316Z,100.00
2018-02-03T03:25:44.777Z,100.00
2018-02-03T03:28:12.555Z,100.00
2018-02-03T03:30:40.019Z,100.00
2018-02-03T03:33:07.486Z,100.00
2018-02-03T03:35:35.220Z,100.00
2018-02-03T03:38:02.681Z,100.00
2018-02-03T03:40:30.142Z,100.00
2018-02-03T03:42:58.573Z,100.00
2018-02-03T03:45:26.033Z,100.00
2018-02-03T03:47:53.484Z,100.00
2018-02-03T03:50:21.539Z,100.00
2018-02-03T03:52:48.988Z,100.00
2018-02-03T03:55:16.445Z,100.00
2018-02-03T03:57:44.152Z,100.00
2018-02-03T04:00:11.598Z,100.00
2018-02-03T04:02:39.062Z,100.00
2018-02-03T04:05:06.923Z,100.00
2018-02-03T04:07:34.385Z,100.00
2018-02-03T04:10:01.846Z,100.00
2018-02-03T04:12:29.610Z,100.00
2018-02-03T04:14:57.077Z,100.00
2018-02-03T04:17:24.526Z,100.00
2018-02-03T04:19:52.911Z,100.00
2018-02-03T04:22:20.373Z,100.00
2018-02-03T04:24:48.211Z,100.00
2018-02-03T04:27:15.927Z,100.00
2018-02-03T04:29:43.386Z,100.00
2018-02-03T04:32:10.833Z,100.00
2018-02-03T04:34:38.591Z,100.00
2018-02-03T04:37:06.057Z,100.00
2018-02-03T04:39:33.519Z,100.00
2018-02-03T04:42:01.893Z,100.00
2018-02-03T04:44:29.358Z,100.00
2018-02-03T04:46:57.199Z,100.00
2018-02-03T04:49:25.142Z,100.00
2018-02-03T04:51:52.604Z,100.00
2018-02-03T04:54:20.064Z,100.00
2018-02-03T04:56:48.181Z,100.00
2018-02-03T04:59:15.647Z,100.00
2018-02-03T05:08:26.464Z,100.00
2018-02-03T05:10:53.916Z,100.00
2018-02-03T05:13:21.369Z,100.00
2018-02-03T05:15:49.101Z,100.00
2018-02-03T05:18:16.557Z,100.00
2018-02-03T05:20:44.016Z,100.00
2018-02-03T05:23:11.844Z,100.00
2018-02-03T05:25:40.033Z,100.00
2018-02-03T05:28:07.485Z,100.00
2018-02-03T05:30:35.313Z,100.00
2018-02-03T05:33:02.773Z,100.00
2018-02-03T05:35:30.232Z,100.00
2018-02-03T05:37:57.811Z,100.00
2018-02-03T05:40:25.336Z,100.00
2018-02-03T05:42:52.801Z,100.00
2018-02-03T05:45:20.444Z,100.00
2018-02-03T05:47:47.903Z,100.00
2018-02-03T05:50:15.361Z,100.00
2018-02-03T05:52:42.992Z,100.00
2018-02-03T05:55:10.452Z,100.00
2018-02-03T05:57:37.908Z,100.00
2018-02-03T06:00:05.700Z,100.00
2018-02-03T06:02:33.161Z,100.00
2018-02-03T06:05:00.611Z,100.00
2018-02-03T06:07:28.263Z,100.00
2018-02-03T06:09:55.709Z,100.00
2018-02-03T06:12:23.164Z,100.00
2018-02-03T06:14:51.265Z,100.00
2018-02-03T06:17:18.840Z,100.00
2018-02-03T06:19:46.303Z,100.00
2018-02-03T06:22:14.303Z,100.00
2018-02-03T06:24:41.752Z,100.00
2018-02-03T06:27:09.861Z,100.00
2018-02-03T06:29:37.869Z,100.00
2018-02-03T06:32:05.328Z,100.00
2018-02-03T06:34:32.789Z,100.00
2018-02-03T06:37:00.502Z,100.00
2018-02-03T06:39:27.963Z,100.00
2018-02-03T06:41:55.416Z,100.00
2018-02-03T06:44:23.253Z,100.00
2018-02-03T06:46:51.261Z,100.00
2018-02-03T06:49:18.855Z,100.00
2018-02-03T06:51:46.861Z,100.00
2018-02-03T06:54:14.327Z,100.00
2018-02-03T06:56:41.784Z,100.00
2018-02-03T06:59:09.540Z,100.00
2018-02-03T07:01:36.996Z,100.00
2018-02-03T07:04:04.456Z,100.00
2018-02-03T07:06:32.218Z,100.00
2018-02-03T07:08:59.677Z,100.00
2018-02-03T07:11:27.126Z,100.00
2018-02-03T07:13:54.849Z,100.00
2018-02-03T07:16:22.306Z,100.00
2018-02-03T07:18:49.770Z,100.00
2018-02-03T07:21:17.602Z,100.00
2018-02-03T07:23:45.061Z,100.00
2018-02-03T07:26:12.832Z,100.00
2018-02-03T07:28:40.905Z,99.88
2018-02-03T07:31:08.370Z,100.00
2018-02-03T07:33:35.820Z,100.00
2018-02-03T07:36:03.400Z,100.00
2018-02-03T07:38:30.861Z,100.00
2018-02-03T07:40:58.316Z,100.00
2018-02-03T07:43:26.585Z,100.00
2018-02-03T07:45:54.036Z,100.00
2018-02-03T07:48:21.490Z,100.00
2018-02-03T07:50:49.573Z,100.00
2018-02-03T07:53:17.061Z,100.00
2018-02-03T07:55:44.522Z,100.00
2018-02-03T07:58:12.313Z,100.00
2018-02-03T08:00:39.940Z,100.00
2018-02-03T08:03:07.435Z,100.00
2018-02-03T08:05:35.257Z,100.00
2018-02-03T08:08:02.745Z,100.00
2018-02-03T08:10:30.222Z,100.00
2018-02-03T08:12:57.957Z,100.00
2018-02-03T08:15:25.431Z,100.00
2018-02-03T08:17:52.911Z,100.00
2018-02-03T08:20:20.649Z,100.00
2018-02-03T08:22:48.114Z,100.00
2018-02-03T08:25:15.581Z,99.15
2018-02-03T08:27:43.318Z,99.21
2018-02-03T08:30:11.159Z,100.00
2018-02-03T08:32:38.646Z,100.00
2018-02-03T08:35:06.627Z,100.00
2018-02-03T08:37:34.149Z,99.13
2018-02-03T08:40:01.614Z,100.00
2018-02-03T08:42:29.456Z,99.42
2018-02-03T08:44:56.914Z,99.61
2018-02-03T08:47:24.365Z,99.62
2018-02-03T08:49:52.361Z,100.00
2018-02-03T08:52:19.683Z,100.00
2018-02-03T08:54:47.143Z,100.00
2018-02-03T08:57:14.990Z,100.00
2018-02-03T08:59:42.441Z,99.53
2018-02-03T09:02:10.224Z,99.65
2018-02-03T09:04:37.977Z,99.26
2018-02-03T09:07:05.425Z,99.11
2018-02-03T09:09:32.880Z,99.13
2018-02-03T09:12:05.385Z,99.31
2018-02-03T09:14:32.817Z,98.59
2018-02-03T09:17:00.276Z,98.58
2018-02-03T09:19:27.969Z,97.50
2018-02-03T09:21:55.484Z,96.95
2018-02-03T09:24:22.949Z,96.87
2018-02-03T09:26:50.960Z,95.90
2018-02-03T09:29:18.413Z,96.34
2018-02-03T09:31:46.596Z,95.60
2018-02-03T09:34:14.302Z,94.40
2018-02-03T09:36:41.764Z,94.36
2018-02-03T09:39:09.230Z,92.81
2018-02-03T09:41:37.254Z,93.26
2018-02-03T09:44:04.705Z,92.40
2018-02-03T09:46:32.151Z,93.80
2018-02-03T09:48:59.937Z,94.05
2018-02-03T09:51:27.400Z,94.96
2018-02-03T09:53:54.857Z,95.59
2018-02-03T09:56:22.996Z,95.96
2018-02-03T09:58:50.428Z,95.17
2018-02-03T10:01:17.876Z,95.63
2018-02-03T10:03:45.932Z,95.17
2018-02-03T10:06:13.381Z,94.85
2018-02-03T10:08:40.828Z,95.42
2018-02-03T10:11:08.537Z,94.42
2018-02-03T10:13:36.000Z,94.31
2018-02-03T10:16:03.448Z,92.86
2018-02-03T10:18:31.300Z,93.50
2018-02-03T10:20:58.751Z,95.04
2018-02-03T10:23:27.143Z,93.40
2018-02-03T10:25:54.592Z,92.90
2018-02-03T10:28:22.116Z,93.12
2018-02-03T10:30:49.889Z,92.75
2018-02-03T10:33:17.402Z,92.87
2018-02-03T10:35:44.856Z,92.85
2018-02-03T10:38:13.130Z,92.53
2018-02-03T10:40:40.588Z,93.13
2018-02-03T10:43:08.032Z,93.32
2018-02-03T10:45:36.133Z,92.79
2018-02-03T10:48:03.591Z,92.92
2018-02-03T10:50:31.042Z,92.58
2018-02-03T10:52:58.812Z,93.11
2018-02-03T10:55:26.481Z,94.09
2018-02-03T10:57:54.048Z,94.33
2018-02-03T11:00:21.805Z,93.04
2018-02-03T11:02:49.252Z,93.04
2018-02-03T11:05:16.708Z,93.78
2018-02-03T11:07:44.500Z,93.16
2018-02-03T11:10:11.953Z,92.56
2018-02-03T11:12:39.403Z,93.39
2018-02-03T11:15:07.067Z,93.43
2018-02-03T11:17:34.535Z,92.71
2018-02-03T11:20:02.072Z,93.70
2018-02-03T11:22:29.920Z,94.47
2018-02-03T11:24:57.712Z,93.95
2018-02-03T11:27:25.156Z,94.88
2018-02-03T11:29:53.195Z,94.54
2018-02-03T11:32:20.647Z,95.08
2018-02-03T11:34:48.179Z,93.94
2018-02-03T11:37:16.471Z,93.97
2018-02-03T11:39:43.949Z,94.34
2018-02-03T11:42:11.886Z,93.51
2018-02-03T11:44:40.545Z,94.50
2018-02-03T11:47:08.002Z,93.92
2018-02-03T11:49:35.453Z,94.88
2018-02-03T11:52:03.390Z,94.09
2018-02-03T11:54:31.788Z,93.56
2018-02-03T11:56:59.580Z,93.48
2018-02-03T11:59:27.629Z,93.72
2018-02-03T12:01:55.097Z,93.46
2018-02-03T12:04:23.149Z,94.65
2018-02-03T12:06:52.348Z,93.80
2018-02-03T12:09:20.260Z,92.36
2018-02-03T12:11:47.980Z,94.05
2018-02-03T12:14:16.082Z,93.19
2018-02-03T12:16:43.546Z,93.26
2018-02-03T12:19:11.029Z,93.34
2018-02-03T12:21:38.734Z,94.11
2018-02-03T12:24:06.193Z,93.78
2018-02-03T12:26:34.356Z,93.26
2018-02-03T12:29:02.357Z,93.21
2018-02-03T12:31:29.813Z,93.00
2018-02-03T12:33:58.290Z,92.67
2018-02-03T12:36:26.057Z,93.12
2018-02-03T12:38:53.526Z,93.88
2018-02-03T12:41:20.985Z,93.61
2018-02-03T12:43:48.948Z,93.82
2018-02-03T12:46:16.396Z,93.86
2018-02-03T12:48:43.861Z,94.34
2018-02-03T12:51:11.610Z,93.39
2018-02-03T13:00:22.537Z,92.10
2018-02-03T13:02:49.980Z,93.54
2018-02-03T13:05:17.439Z,92.77
2018-02-03T13:07:45.148Z,92.30
2018-02-03T13:10:12.596Z,92.16
2018-02-03T13:12:40.068Z,91.60
2018-02-03T13:15:07.721Z,92.17
2018-02-03T13:17:35.177Z,90.70
2018-02-03T13:20:02.627Z,90.73
2018-02-03T13:22:30.528Z,91.45
2018-02-03T13:24:57.984Z,91.12
2018-02-03T13:27:27.667Z,90.48
2018-02-03T13:29:55.248Z,91.49
2018-02-03T13:32:22.696Z,91.12
2018-02-03T13:34:50.148Z,91.52
2018-02-03T13:37:18.049Z,91.48
2018-02-03T13:39:45.500Z,90.72
2018-02-03T13:42:12.951Z,90.27
2018-02-03T13:44:40.660Z,89.88
2018-02-03T13:47:08.125Z,89.97
2018-02-03T13:49:35.582Z,88.77
2018-02-03T13:52:03.418Z,89.39
2018-02-03T13:54:30.864Z,88.82
2018-02-03T13:56:58.320Z,87.93
2018-02-03T13:59:26.120Z,87.91
2018-02-03T14:01:53.585Z,87.26
2018-02-03T14:04:21.039Z,87.43
2018-02-03T14:06:48.619Z,87.65
2018-02-03T14:09:16.067Z,88.11
2018-02-03T14:11:43.520Z,87.73
2018-02-03T14:14:11.482Z,87.21
2018-02-03T14:16:38.932Z,87.75
2018-02-03T14:19:06.384Z,87.50
2018-02-03T14:21:34.480Z,87.72
2018-02-03T14:24:07.469Z,87.37
2018-02-03T14:26:35.245Z,86.76
2018-02-03T14:29:03.069Z,86.00
2018-02-03T14:31:30.515Z,86.91
2018-02-03T14:33:58.256Z,87.90
2018-02-03T14:36:25.704Z,88.86
2018-02-03T14:38:53.159Z,89.48
2018-02-03T14:41:20.837Z,89.58
2018-02-03T14:43:48.281Z,89.73
2018-02-03T14:46:15.730Z,90.40
2018-02-03T14:48:43.607Z,90.18
2018-02-03T14:51:11.056Z,90.14
2018-02-03T14:53:38.505Z,90.23
2018-02-03T14:56:06.205Z,89.15
2018-02-03T14:58:33.653Z,89.85
2018-02-03T15:01:01.104Z,90.43
2018-02-03T15:03:28.977Z,90.56
2018-02-03T15:05:56.426Z,90.83
2018-02-03T15:08:23.884Z,90.20
2018-02-03T15:10:51.976Z,90.28
2018-02-03T15:13:19.428Z,91.00
2018-02-03T15:15:46.897Z,91.39
2018-02-03T15:18:14.649Z,91.39
2018-02-03T15:20:42.101Z,91.31
2018-02-03T15:23:09.553Z,91.16
2018-02-03T15:25:37.345Z,91.54
2018-02-03T15:28:04.792Z,91.34
2018-02-03T15:30:32.944Z,90.71
2018-02-03T15:33:00.696Z,96.55
2018-02-03T15:35:28.160Z,89.73
2018-02-03T15:37:55.611Z,90.48
2018-02-03T15:40:23.651Z,91.16
2018-02-03T15:42:51.114Z,91.58
2018-02-03T15:45:18.568Z,91.38
2018-02-03T15:47:46.323Z,91.14
2018-02-03T15:50:13.798Z,92.61
2018-02-03T15:52:41.252Z,92.66
2018-02-03T15:55:09.322Z,93.00
2018-02-03T15:57:36.770Z,93.16
2018-02-03T16:00:04.230Z,94.27
2018-02-03T16:02:32.309Z,94.17
2018-02-03T16:04:59.767Z,94.73
2018-02-03T16:07:27.216Z,94.63
2018-02-03T16:09:55.016Z,94.77
2018-02-03T16:12:22.497Z,94.82
2018-02-03T16:14:49.947Z,95.30
2018-02-03T16:17:17.705Z,95.82
2018-02-03T16:19:45.156Z,96.04
2018-02-03T16:22:12.604Z,96.05
2018-02-03T16:24:40.700Z,96.32
2018-02-03T16:27:08.152Z,96.18
2018-02-03T16:29:35.604Z,96.57
2018-02-03T16:32:04.448Z,96.54
2018-02-03T16:34:31.920Z,96.60
2018-02-03T16:36:59.375Z,97.04
2018-02-03T16:39:27.597Z,97.08
2018-02-03T16:41:55.052Z,97.19
2018-02-03T16:44:22.505Z,97.11
2018-02-03T16:46:50.177Z,97.29
2018-02-03T16:49:17.630Z,97.54
2018-02-03T16:51:45.078Z,97.59
2018-02-03T16:54:12.964Z,97.55
2018-02-03T16:56:42.361Z,97.72
2018-02-03T16:59:09.829Z,97.75
2018-02-03T17:01:37.493Z,98.01
2018-02-03T17:04:04.942Z,98.08
2018-02-03T17:06:32.386Z,98.00
2018-02-03T17:09:00.188Z,97.81
2018-02-03T17:11:27.645Z,97.67
2018-02-03T17:13:55.090Z,97.39
2018-02-03T17:16:23.175Z,97.17
2018-02-03T17:18:50.624Z,97.43
2018-02-03T17:21:18.088Z,96.80
2018-02-03T17:23:45.885Z,96.96
2018-02-03T17:26:13.328Z,96.53
2018-02-03T17:28:40.810Z,96.38
2018-02-03T17:31:08.556Z,96.20
2018-02-03T17:33:36.402Z,96.32
2018-02-03T17:36:03.844Z,96.34
2018-02-03T17:38:51.141Z,96.51
2018-02-03T17:41:18.603Z,96.69
2018-02-03T17:43:46.046Z,96.75
2018-02-03T17:46:19.348Z,96.49
2018-02-03T17:48:46.809Z,96.73
2018-02-03T17:51:14.257Z,97.26
2018-02-03T17:53:42.078Z,97.05
2018-02-03T17:56:14.972Z,97.14
2018-02-03T17:58:42.425Z,97.19
2018-02-03T18:01:10.344Z,97.11
2018-02-03T18:03:37.798Z,97.19
2018-02-03T18:06:05.257Z,96.91
2018-02-03T18:08:33.532Z,97.11
2018-02-03T18:11:00.979Z,97.08
2018-02-03T18:13:28.437Z,96.89
2018-02-03T18:15:56.275Z,96.95
2018-02-03T18:18:23.725Z,96.50
2018-02-03T18:20:51.180Z,96.03
2018-02-03T18:23:19.004Z,96.42
2018-02-03T18:25:46.452Z,96.14
2018-02-03T18:28:13.903Z,96.79
2018-02-03T18:30:41.700Z,96.58
2018-02-03T18:33:09.153Z,97.39
2018-02-03T18:35:38.835Z,97.75
2018-02-03T18:38:06.529Z,97.56
2018-02-03T18:40:33.968Z,98.00
2018-02-03T18:43:01.430Z,97.82
2018-02-03T18:45:41.011Z,98.03
2018-02-03T18:48:08.466Z,98.20
2018-02-03T18:50:35.912Z,98.12
2018-02-03T18:53:04.190Z,98.20
2018-02-03T18:55:31.639Z,100.00
2018-02-03T18:57:59.094Z,100.00
2018-02-03T19:00:26.877Z,100.00
2018-02-03T19:02:54.331Z,100.00
2018-02-03T19:05:21.786Z,100.00
2018-02-03T19:07:49.465Z,100.00
2018-02-03T19:10:16.913Z,100.00
2018-02-03T19:12:44.368Z,100.00
2018-02-03T19:15:12.268Z,100.00
2018-02-03T19:17:39.721Z,100.00
2018-02-03T19:20:07.175Z,100.00
2018-02-03T19:22:34.950Z,100.00
2018-02-03T19:25:02.419Z,100.00
2018-02-03T19:27:29.870Z,100.00
2018-02-03T19:29:57.625Z,100.00
2018-02-03T19:32:25.075Z,100.00
2018-02-03T19:34:52.528Z,100.00
2018-02-03T19:37:20.950Z,100.00
2018-02-03T19:39:48.404Z,100.00
2018-02-03T19:42:17.045Z,100.00
2018-02-03T19:44:44.840Z,100.00
2018-02-03T19:47:12.382Z,100.00
2018-02-03T19:49:39.836Z,100.00
2018-02-03T19:52:07.545Z,100.00
2018-02-03T19:54:35.005Z,100.00
2018-02-03T19:57:02.460Z,100.00
2018-02-03T19:59:30.533Z,100.00
2018-02-03T20:01:57.993Z,100.00
2018-02-03T20:04:25.444Z,100.00
2018-02-03T20:06:53.222Z,100.00
2018-02-03T20:09:20.678Z,100.00
2018-02-03T20:11:48.145Z,100.00
2018-02-03T20:14:15.960Z,100.00
2018-02-03T20:16:43.415Z,100.00
2018-02-03T20:19:10.885Z,100.00
2018-02-03T20:21:38.594Z,100.00
2018-02-03T20:24:06.049Z,100.00
2018-02-03T20:26:33.505Z,100.00
2018-02-03T20:29:01.376Z,100.00
2018-02-03T20:31:28.831Z,100.00
2018-02-03T20:33:56.289Z,100.00
2018-02-03T20:36:24.273Z,100.00
2018-02-03T20:38:52.432Z,100.00
2018-02-03T20:41:19.902Z,100.00
2018-02-03T20:43:47.668Z,100.00
2018-02-03T20:46:15.111Z,100.00
2018-02-03T20:48:42.572Z,100.00
2018-02-03T20:51:10.268Z,100.00
2018-02-03T20:53:37.724Z,100.00
2018-02-03T20:56:05.193Z,100.00
2018-02-03T20:58:32.945Z,100.00
2018-02-03T21:01:00.413Z,100.00
2018-02-03T21:03:27.865Z,100.00
2018-02-03T21:05:55.631Z,100.00
2018-02-03T21:08:23.080Z,100.00
2018-02-03T21:10:50.533Z,100.00
2018-02-03T21:13:18.345Z,100.00
2018-02-03T21:15:45.804Z,100.00
2018-02-03T21:18:13.268Z,100.00
2018-02-03T21:20:41.020Z,100.00
2018-02-03T21:23:08.476Z,100.00
2018-02-03T21:25:35.952Z,100.00
2018-02-03T21:28:03.997Z,100.00
2018-02-03T21:30:31.453Z,100.00
2018-02-03T21:32:58.925Z,100.00
2018-02-03T21:35:26.692Z,100.00
2018-02-03T21:37:54.144Z,100.00
2018-02-03T21:40:23.538Z,100.00
2018-02-03T21:42:51.257Z,100.00
2018-02-03T21:45:18.913Z,100.00
2018-02-03T21:47:46.392Z,100.00
2018-02-03T21:50:14.216Z,100.00
2018-02-03T21:52:41.682Z,100.00
2018-02-03T21:55:09.136Z,100.00
2018-02-03T21:57:36.896Z,100.00
2018-02-03T22:00:04.367Z,100.00
2018-02-03T22:02:31.832Z,100.00
2018-02-03T22:04:59.580Z,100.00
2018-02-03T22:07:27.033Z,100.00
2018-02-03T22:09:54.559Z,100.00
2018-02-03T22:12:22.279Z,100.00
2018-02-03T22:14:49.740Z,100.00
2018-02-03T22:17:17.244Z,100.00
2018-02-03T22:19:44.956Z,100.00
2018-02-03T22:22:12.416Z,100.00
2018-02-03T22:24:39.868Z,100.00
2018-02-03T22:27:07.672Z,100.00
2018-02-03T22:29:35.136Z,100.00
2018-02-03T22:32:02.589Z,100.00
2018-02-03T22:34:30.348Z,100.00
2018-02-03T22:36:57.804Z,100.00
2018-02-03T22:39:25.282Z,100.00
2018-02-03T22:41:53.648Z,100.00
2018-02-03T22:44:21.141Z,100.00
2018-02-03T22:46:48.604Z,100.00
2018-02-03T22:49:16.338Z,100.00
2018-02-03T22:51:43.795Z,100.00
2018-02-03T22:54:11.266Z,100.00
2018-02-03T22:56:39.014Z,100.00
2018-02-03T22:59:06.484Z,100.00
2018-02-03T23:01:33.936Z,100.00
2018-02-03T23:04:01.649Z,100.00
2018-02-03T23:06:29.106Z,100.00
2018-02-03T23:08:56.563Z,100.00
2018-02-03T23:11:24.396Z,100.00
2018-02-03T23:13:51.853Z,100.00
2018-02-03T23:16:19.312Z,100.00
2018-02-03T23:18:47.377Z,100.00
2018-02-03T23:21:14.848Z,100.00
2018-02-03T23:23:42.317Z,100.00
2018-02-03T23:26:10.251Z,100.00
2018-02-03T23:28:37.708Z,100.00
2018-02-03T23:31:05.167Z,100.00
2018-02-03T23:33:33.060Z,100.00
2018-02-03T23:36:00.507Z,100.00
2018-02-03T23:38:27.955Z,100.00
2018-02-03T23:40:55.755Z,100.00
2018-02-03T23:43:23.584Z,100.00
2018-02-03T23:45:51.039Z,100.00
2018-02-03T23:48:19.355Z,100.00
2018-02-03T23:50:46.809Z,100.00
2018-02-03T23:53:14.252Z,100.00
2018-02-03T23:55:42.041Z,100.00
2018-02-03T23:58:09.496Z,100.00
